Meteo Giornale » Osservazioni meteo Stati Uniti (USA) » Berlin

ore: 22:52 - Osservazioni Meteo Berlin
Lat. 44° 34' N Lon. 71° 10' W Alt. 353 metri s.l.m.

coperto America/New_York

3 °C

Coperto

Temp. 24 Ore

-6 °C

7 °C

Nord

7.4 Km/h

Dew point -2 °C

Umidità 69 %

Visibilità  10 Km

Il sole sorge alle ore 06:21

Il sole tramonta alle ore 19:14

Data e Ora Cielo e Fenomeni T °C DP °C Um. % Pres. hPa Vis. km Vento km/h
Oggi h: 22:52 coperto Coperto 3 -2 69 1007 10 N 7.4
Oggi h: 21:52 coperto Coperto 4 -2 64 1008 10 NO 7.4
Oggi h: 21:35 coperto Coperto 4 -2 64 1008 10 N 5.5
Oggi h: 20:52 coperto Coperto 4 -3 60 1008 10 N/NO 7.4
Oggi h: 19:52 coperto Coperto 4 -2 64 1008 10 N 0
Oggi h: 18:52 coperto Coperto 5 -2 60 1008 10 N/NE 11.1
Oggi h: 17:52 coperto Coperto 6 -3 52 1008 10 N 7.4
Oggi h: 16:52 coperto Coperto 6 -3 52 1008 10 NE 11.1
Oggi h: 15:52 coperto Coperto 7 -3 48 1008 10 N 13
Oggi h: 13:52 coperto Coperto 6 -3 52 1009 10 N 9.3
Oggi h: 11:52 coperto Coperto 4 -4 55 1010 10 N 20.3
Oggi h: 10:31 coperto Coperto 2 -4 64 1010 10 N 7.4
Oggi h: 09:52 coperto Coperto 2 -4 64 1011 10 N 13
Oggi h: 08:52 coperto Coperto 0 -4 74 1011 10 N/NO 13
Oggi h: 07:52 coperto Coperto -3 -4 92 1012 10 N 0
Oggi h: 06:52 coperto Coperto -5 -7 85 1012 10 N 0
Oggi h: 05:52 nuvoloso Nuvoloso -6 -8 85 1012 10 N 0
Oggi h: 04:52 poco_nuvoloso Poco Nuvoloso -6 -8 85 1012 10 N 0
Oggi h: 03:52 sereno Sereno -6 -8 85 1012 10 N 0
Oggi h: 02:52 sereno Sereno -6 -8 85 1012 10 N 0
Oggi h: 01:52 sereno Sereno -4 -7 79 1013 10 N 0
Oggi h: 00:52 poco_nuvoloso Poco Nuvoloso -4 -7 79 1014 10 N 0
Ieri h: 23:52 sereno Sereno -4 -6 85 1014 10 N 0